createdAt,value
2018-07-11T09:03:58.222Z,13.83
2018-07-11T09:06:39.886Z,13.53
2018-07-11T09:09:16.989Z,13.43
2018-07-11T09:11:53.983Z,15.20
2018-07-11T09:14:34.344Z,14.83
2018-07-11T09:19:17.966Z,12.70
2018-07-11T09:21:59.639Z,11.83
2018-07-11T09:24:53.775Z,11.17
2018-07-11T09:27:23.141Z,11.12
2018-07-11T09:29:55.840Z,11.35
2018-07-11T09:32:26.931Z,11.28
2018-07-11T09:34:57.890Z,11.80
2018-07-11T09:37:39.896Z,11.63
2018-07-11T09:40:09.926Z,11.68
2018-07-11T09:42:40.411Z,11.48
2018-07-11T09:45:10.256Z,11.00
2018-07-11T09:47:40.618Z,11.43
2018-07-11T09:50:10.337Z,10.50
2018-07-11T09:52:39.516Z,10.90
2018-07-11T09:55:10.308Z,9.87
2018-07-11T09:57:41.168Z,10.73
2018-07-11T10:00:13.708Z,10.70
2018-07-11T10:02:51.532Z,10.33
2018-07-11T10:05:26.044Z,10.33
2018-07-11T10:07:55.915Z,9.40
2018-07-11T10:10:24.286Z,10.17
2018-07-11T10:12:52.872Z,9.87
2018-07-11T10:15:21.326Z,9.73
2018-07-11T10:17:50.618Z,8.90
2018-07-11T10:20:22.234Z,9.37
2018-07-11T10:22:51.129Z,8.37
2018-07-11T10:25:19.912Z,7.80
2018-07-11T10:27:54.375Z,7.40
2018-07-11T10:30:23.722Z,8.47
2018-07-11T10:32:53.722Z,7.83
2018-07-11T10:35:22.267Z,8.70
2018-07-11T10:37:54.242Z,7.87
2018-07-11T10:40:23.492Z,7.53
2018-07-11T10:42:52.399Z,8.07
2018-07-11T10:45:21.411Z,8.00
2018-07-11T10:47:49.979Z,6.80
2018-07-11T10:50:19.651Z,7.50
2018-07-11T10:52:48.285Z,7.20
2018-07-11T10:55:18.682Z,5.70
2018-07-11T10:57:50.248Z,5.90
2018-07-11T11:00:36.654Z,5.77
2018-07-11T11:03:01.555Z,5.40
2018-07-11T11:05:35.998Z,5.50
2018-07-11T11:08:09.493Z,5.20
2018-07-11T11:10:41.480Z,5.50
2018-07-11T11:13:10.131Z,5.70
2018-07-11T11:15:40.132Z,4.80
2018-07-11T11:18:11.479Z,4.73
2018-07-11T11:20:46.928Z,5.10
2018-07-11T11:23:20.421Z,4.93
2018-07-11T11:25:52.700Z,4.70
2018-07-11T11:28:22.945Z,5.50
2018-07-11T11:30:53.761Z,5.40
2018-07-11T11:33:24.562Z,5.77
2018-07-11T11:35:56.727Z,4.90
2018-07-11T11:38:28.314Z,5.47
2018-07-11T11:41:00.564Z,5.87
2018-07-11T11:43:38.231Z,6.00
2018-07-11T11:46:10.366Z,5.77
2018-07-11T11:48:44.938Z,5.57
2018-07-11T11:51:15.243Z,6.73
2018-07-11T11:53:45.721Z,5.27
2018-07-11T11:56:18.236Z,4.87
2018-07-11T11:58:56.483Z,4.90
2018-07-11T12:01:32.065Z,5.17
2018-07-11T12:04:02.862Z,5.50
2018-07-11T12:06:33.452Z,5.40
2018-07-11T12:09:12.947Z,4.80
2018-07-11T12:11:45.838Z,6.00
2018-07-11T12:14:17.699Z,5.10
2018-07-11T12:16:59.358Z,4.67
2018-07-11T12:19:36.007Z,4.97
2018-07-11T12:22:11.409Z,4.50
2018-07-11T12:24:46.419Z,4.67
2018-07-11T12:27:25.075Z,3.63
2018-07-11T12:30:06.580Z,3.10
2018-07-11T12:32:36.856Z,3.70
2018-07-11T12:35:12.049Z,3.10
2018-07-11T12:37:47.008Z,2.50
2018-07-11T12:40:20.285Z,2.77
2018-07-11T12:42:55.778Z,2.50
2018-07-11T12:45:26.993Z,2.80
2018-07-11T12:49:04.519Z,2.30
2018-07-11T12:51:37.583Z,2.40
2018-07-11T12:54:16.224Z,2.60
2018-07-11T12:56:44.826Z,2.33
2018-07-11T12:59:13.694Z,2.20
2018-07-11T13:01:42.630Z,2.20
2018-07-11T13:04:14.430Z,1.90
2018-07-11T13:06:45.545Z,2.00
2018-07-11T13:09:17.718Z,1.73
2018-07-11T13:11:53.464Z,1.77
2018-07-11T13:14:26.015Z,1.70
2018-07-11T13:17:04.185Z,1.63
2018-07-11T13:19:33.608Z,1.67
2018-07-11T13:22:28.223Z,1.57
2018-07-11T19:17:09.438Z,47.77
2018-07-11T19:19:49.323Z,47.07
2018-07-11T19:23:30.968Z,44.37
2018-07-11T19:26:21.574Z,45.43
2018-07-11T19:29:05.344Z,43.93
2018-07-11T19:31:45.638Z,38.60
2018-07-11T19:34:56.433Z,43.97
2018-07-11T19:37:41.833Z,32.57
2018-07-11T19:41:21.369Z,35.13
2018-07-11T19:46:05.296Z,36.87
2018-07-11T19:50:52.971Z,36.67
2018-07-11T19:53:34.059Z,38.23
2018-07-11T19:56:11.801Z,40.73
2018-07-11T19:58:46.706Z,40.53
2018-07-11T20:04:47.666Z,38.87
2018-07-11T20:07:16.255Z,41.57
2018-07-11T20:09:46.126Z,37.67
2018-07-11T20:12:16.127Z,37.93
2018-07-11T20:14:45.482Z,40.20
2018-07-11T20:17:14.559Z,41.07
2018-07-11T20:19:44.040Z,40.37
2018-07-11T20:22:12.807Z,43.10
2018-07-11T20:24:41.883Z,46.00
2018-07-11T20:27:11.399Z,45.17
2018-07-11T20:29:41.347Z,38.93
2018-07-11T20:32:10.852Z,42.87
2018-07-11T20:34:40.546Z,49.37
2018-07-11T20:37:09.822Z,39.37
2018-07-11T20:39:38.898Z,41.57
2018-07-11T20:42:08.310Z,41.87
2018-07-11T20:44:37.750Z,48.27
2018-07-11T20:47:08.342Z,43.37
2018-07-11T20:49:37.970Z,55.07
2018-07-11T20:52:07.210Z,45.17
2018-07-11T20:54:36.316Z,47.20
2018-07-11T20:57:05.576Z,44.00
2018-07-11T20:59:45.400Z,42.37
2018-07-11T21:02:25.362Z,41.87
2018-07-11T21:05:33.640Z,40.13
2018-07-11T21:08:09.699Z,40.57
2018-07-11T21:12:52.036Z,38.27
2018-07-11T21:16:33.166Z,36.07
2018-07-11T21:19:10.865Z,42.53
2018-07-11T21:21:40.223Z,40.03
2018-07-11T21:24:10.031Z,41.50
2018-07-11T21:26:38.751Z,42.30
2018-07-11T21:32:38.368Z,35.97
2018-07-11T21:35:06.787Z,37.87
2018-07-11T21:37:35.140Z,41.10
2018-07-11T21:40:04.119Z,34.60
2018-07-11T21:42:33.524Z,26.77
2018-07-11T21:45:02.248Z,25.67
2018-07-11T21:47:30.449Z,24.73
2018-07-11T21:49:59.664Z,27.40
2018-07-11T21:52:28.712Z,27.97
2018-07-11T21:54:58.184Z,28.83
2018-07-11T21:57:27.187Z,30.03
2018-07-11T21:59:56.099Z,30.70
2018-07-11T22:02:25.214Z,33.37
2018-07-11T22:04:54.172Z,29.43
2018-07-11T22:07:23.135Z,29.90
2018-07-11T22:09:52.087Z,28.83
2018-07-11T22:12:21.128Z,29.10
2018-07-11T22:14:49.875Z,28.90
2018-07-11T22:19:34.436Z,31.87
2018-07-11T22:22:02.011Z,36.00
2018-07-11T22:24:29.435Z,36.40
2018-07-11T22:26:56.452Z,38.30
2018-07-11T22:29:23.909Z,37.13
2018-07-11T22:31:51.029Z,36.80
2018-07-11T22:34:18.684Z,39.33
2018-07-11T22:36:46.409Z,41.10
2018-07-11T22:39:13.830Z,41.47
2018-07-11T22:41:41.439Z,44.10
2018-07-11T22:44:09.977Z,45.40
2018-07-11T22:46:38.731Z,45.90
2018-07-11T22:49:08.140Z,48.67
2018-07-11T22:51:37.039Z,48.00
2018-07-11T22:54:05.636Z,46.23
2018-07-11T22:56:34.853Z,47.43
2018-07-11T22:59:03.135Z,47.67
2018-07-11T23:01:31.119Z,51.27
2018-07-11T23:04:00.530Z,47.33
2018-07-11T23:06:30.284Z,48.93
2018-07-11T23:08:57.943Z,46.97
2018-07-11T23:11:27.203Z,47.73
2018-07-11T23:13:55.840Z,47.70
2018-07-11T23:16:24.613Z,47.03
2018-07-11T23:18:53.133Z,45.50
2018-07-11T23:21:21.439Z,49.40
2018-07-11T23:23:51.436Z,48.67
2018-07-11T23:26:21.290Z,49.30
2018-07-11T23:28:49.658Z,52.57
2018-07-11T23:31:18.053Z,51.60
2018-07-11T23:33:46.637Z,49.50
2018-07-11T23:36:15.355Z,50.33
2018-07-11T23:38:44.388Z,48.27
2018-07-11T23:41:12.004Z,48.07
2018-07-11T23:43:39.628Z,45.73
2018-07-11T23:46:07.203Z,47.77
2018-07-11T23:48:35.803Z,44.53
2018-07-11T23:51:02.914Z,45.17
2018-07-11T23:53:30.537Z,45.17
2018-07-11T23:56:01.021Z,43.80
2018-07-11T23:58:30.279Z,44.97
